createdAt,value
2023-03-04T00:01:54.993Z,100247.97
2023-03-04T00:06:57.555Z,100246.41
2023-03-04T00:11:59.715Z,100241.22
2023-03-04T00:17:03.706Z,100245.00
2023-03-04T00:22:05.428Z,100239.09
2023-03-04T00:27:07.090Z,100233.22
2023-03-04T00:32:08.971Z,100236.41
2023-03-04T00:37:10.668Z,100235.63
2023-03-04T00:42:12.272Z,100239.34
2023-03-04T00:47:13.942Z,100244.88
2023-03-04T00:52:15.806Z,100236.06
2023-03-04T00:57:17.409Z,100230.72
2023-03-04T01:02:19.176Z,100224.72
2023-03-04T01:07:21.086Z,100217.06
2023-03-04T01:12:22.716Z,100209.16
2023-03-04T01:17:24.346Z,100205.06
2023-03-04T01:22:26.043Z,100200.56
2023-03-04T01:27:27.620Z,100190.53
2023-03-04T01:32:29.360Z,100187.97
2023-03-04T01:37:31.204Z,100182.59
2023-03-04T01:42:35.963Z,100183.13
2023-03-04T01:47:37.622Z,100174.66
2023-03-04T01:52:41.125Z,100168.53
2023-03-04T01:57:43.083Z,100153.69
2023-03-04T02:02:44.910Z,100155.75
2023-03-04T02:07:46.558Z,100151.47
2023-03-04T02:12:48.577Z,100146.72
2023-03-04T02:17:50.797Z,100144.06
2023-03-04T02:22:57.622Z,100140.47
2023-03-04T02:27:59.336Z,100148.06
2023-03-04T02:33:01.168Z,100136.31
2023-03-04T02:38:02.790Z,100130.94
2023-03-04T02:43:04.565Z,100124.34
2023-03-04T02:48:07.127Z,100115.75
2023-03-04T02:53:09.303Z,100108.09
2023-03-04T02:58:12.095Z,100105.25
2023-03-04T03:03:13.946Z,100100.91
2023-03-04T03:08:17.105Z,100104.75
2023-03-04T03:13:19.255Z,100089.06
2023-03-04T03:18:21.266Z,100095.47
2023-03-04T03:23:22.974Z,100084.59
2023-03-04T03:28:24.699Z,100071.16
2023-03-04T03:33:26.505Z,100064.94
2023-03-04T03:38:28.369Z,100056.13
2023-03-04T03:43:29.981Z,100052.53
2023-03-04T03:48:31.594Z,100052.69
2023-03-04T03:53:33.211Z,100046.50
2023-03-04T03:58:34.926Z,100040.88
2023-03-04T04:03:36.743Z,100035.81
2023-03-04T04:08:38.548Z,100035.66
2023-03-04T04:13:40.137Z,100033.09
2023-03-04T04:18:41.768Z,100030.53
2023-03-04T04:23:43.457Z,100035.81
2023-03-04T04:28:45.080Z,100031.66
2023-03-04T04:33:46.665Z,100022.38
2023-03-04T04:38:49.389Z,100028.66
2023-03-04T04:43:51.426Z,100030.19
2023-03-04T04:48:53.029Z,100025.44
2023-03-04T04:53:54.698Z,100009.59
2023-03-04T04:59:00.384Z,100011.63
2023-03-04T05:04:02.082Z,100001.03
2023-03-04T05:09:04.451Z,99993.84
2023-03-04T05:14:06.225Z,100000.50
2023-03-04T05:19:07.862Z,99995.56
2023-03-04T05:24:09.565Z,99996.59
2023-03-04T05:29:11.228Z,99997.25
2023-03-04T05:34:12.808Z,99988.16
2023-03-04T05:39:14.464Z,99993.69
2023-03-04T05:44:16.091Z,99997.56
2023-03-04T05:49:18.023Z,100002.94
2023-03-04T05:54:19.829Z,100011.38
2023-03-04T05:59:21.439Z,100014.97
2023-03-04T06:04:23.062Z,100022.81
2023-03-04T06:09:24.879Z,100032.16
2023-03-04T06:14:26.786Z,100035.03
2023-03-04T06:19:28.454Z,100049.28
2023-03-04T06:24:30.092Z,100053.03
2023-03-04T06:29:32.067Z,100055.59
2023-03-04T06:34:33.849Z,100053.84
2023-03-04T06:39:35.467Z,100060.94
2023-03-04T06:44:37.482Z,100063.16
2023-03-04T06:49:39.660Z,100058.38
2023-03-04T06:54:41.253Z,100057.19
2023-03-04T06:59:42.892Z,100045.75
2023-03-04T07:04:44.568Z,100047.47
2023-03-04T07:09:46.312Z,100037.56
2023-03-04T07:14:47.931Z,100046.84
2023-03-04T07:19:49.665Z,100044.03
2023-03-04T07:24:51.340Z,100035.88
2023-03-04T07:29:53.016Z,100043.06
2023-03-04T07:34:54.684Z,100060.66
2023-03-04T07:39:56.313Z,100051.50
2023-03-04T07:44:59.629Z,100051.38
2023-03-04T07:50:01.323Z,100049.72
2023-03-04T07:55:03.342Z,100052.00
2023-03-04T08:00:05.543Z,100041.19
2023-03-04T08:05:13.940Z,100046.91
2023-03-04T08:10:15.886Z,100033.41
2023-03-04T08:15:17.676Z,100042.06
2023-03-04T08:20:19.434Z,100032.25
2023-03-04T08:25:21.778Z,100028.94
2023-03-04T08:30:23.524Z,100034.94
2023-03-04T08:35:25.230Z,100023.81
2023-03-04T08:40:27.267Z,100021.69
2023-03-04T08:45:29.020Z,100010.03
2023-03-04T08:50:30.650Z,99995.81
2023-03-04T08:55:32.664Z,99975.69
2023-03-04T09:00:36.195Z,99968.38
2023-03-04T09:05:39.059Z,99962.69
2023-03-04T09:10:41.192Z,99942.38
2023-03-04T09:15:48.029Z,99945.47
2023-03-04T09:20:50.225Z,99934.13
2023-03-04T09:25:51.917Z,99937.88
2023-03-04T09:30:53.756Z,99918.91
2023-03-04T09:35:55.492Z,99912.41
2023-03-04T09:40:59.236Z,99912.66
2023-03-04T09:46:07.020Z,99912.03
2023-03-04T09:51:32.856Z,99901.28
2023-03-04T09:56:37.923Z,99895.63
2023-03-04T10:01:51.397Z,99891.66
2023-03-04T10:06:54.505Z,99888.53
2023-03-04T10:12:06.253Z,99882.72
2023-03-04T10:17:34.654Z,99870.28
2023-03-04T10:22:46.470Z,99867.88
2023-03-04T10:28:05.033Z,99856.31
2023-03-04T10:33:18.878Z,99850.47
2023-03-04T10:38:22.504Z,99843.16
2023-03-04T10:43:24.822Z,99847.47
2023-03-04T10:48:31.464Z,99845.03
2023-03-04T10:53:41.040Z,99824.09
2023-03-04T10:58:43.845Z,99831.06
2023-03-04T11:03:49.421Z,99807.44
2023-03-04T11:08:56.382Z,99806.56
2023-03-04T11:14:02.673Z,99795.00
2023-03-04T11:19:11.003Z,99794.22
2023-03-04T11:24:28.355Z,99775.75
2023-03-04T11:29:52.225Z,99774.13
2023-03-04T11:35:07.727Z,99770.78
2023-03-04T11:40:23.867Z,99767.47
2023-03-04T11:46:05.604Z,99759.88
2023-03-04T11:51:13.063Z,99748.09
2023-03-04T11:56:33.251Z,99748.09
2023-03-04T12:01:51.960Z,99725.38
2023-03-04T12:06:56.512Z,99737.09
2023-03-04T12:12:21.319Z,99730.31
2023-03-04T12:17:41.266Z,99716.78
2023-03-04T12:22:50.006Z,99701.63
2023-03-04T12:28:21.208Z,99699.91
2023-03-04T12:33:44.264Z,99699.75
2023-03-04T12:39:21.439Z,99683.75
2023-03-04T12:44:23.551Z,99676.97
2023-03-04T12:49:35.520Z,99677.72
2023-03-04T12:54:50.656Z,99659.34
2023-03-04T13:00:48.239Z,99657.75
2023-03-04T13:06:08.398Z,99646.00
2023-03-04T13:11:33.977Z,99649.16
2023-03-04T13:16:38.589Z,99632.41
2023-03-04T13:21:47.977Z,99645.88
2023-03-04T13:26:49.564Z,99633.94
2023-03-04T13:32:36.869Z,99632.41
2023-03-04T13:37:57.648Z,99618.94
2023-03-04T13:43:26.926Z,99623.22
2023-03-04T13:48:36.426Z,99619.16
2023-03-04T13:53:39.953Z,99616.72
2023-03-04T13:58:42.110Z,99604.97
2023-03-04T14:03:44.934Z,99617.47
2023-03-04T14:08:47.528Z,99616.72
2023-03-04T14:13:49.412Z,99625.97
2023-03-04T14:19:21.805Z,99640.22
2023-03-04T14:24:24.436Z,99635.09
2023-03-04T14:29:29.394Z,99644.31
2023-03-04T14:34:37.385Z,99651.91
2023-03-04T14:39:39.158Z,99649.91
2023-03-04T14:44:49.213Z,99655.41
2023-03-04T14:49:51.318Z,99666.53
2023-03-04T14:55:17.613Z,99656.81
2023-03-04T15:00:21.980Z,99675.47
2023-03-04T15:05:26.503Z,99668.31
2023-03-04T15:10:37.324Z,99677.50
2023-03-04T15:15:46.896Z,99677.22
2023-03-04T15:21:02.922Z,99691.44
2023-03-04T15:26:05.935Z,99686.41
2023-03-04T15:31:16.308Z,99686.03
2023-03-04T15:36:23.212Z,99689.00
2023-03-04T15:41:26.367Z,99700.94
2023-03-04T15:46:28.009Z,99708.19
2023-03-04T15:51:30.050Z,99704.56
2023-03-04T15:56:33.922Z,99703.81
2023-03-04T16:01:35.836Z,99700.31
2023-03-04T16:06:37.588Z,99720.00
2023-03-04T16:11:43.828Z,99724.78
2023-03-04T16:16:46.923Z,99736.31
2023-03-04T16:21:48.667Z,99741.84
2023-03-04T16:26:50.505Z,99750.53
2023-03-04T16:31:54.253Z,99754.34
2023-03-04T16:36:55.865Z,99765.78
2023-03-04T16:41:57.541Z,99768.47
2023-03-04T16:46:59.232Z,99776.38
2023-03-04T16:52:01.182Z,99784.13
2023-03-04T16:57:03.097Z,99788.16
2023-03-04T17:02:12.889Z,99795.72
2023-03-04T17:07:14.617Z,99806.13
2023-03-04T17:12:16.232Z,99822.38
2023-03-04T17:17:18.567Z,99819.03
2023-03-04T17:22:20.197Z,99834.41
2023-03-04T17:27:21.834Z,99839.13
2023-03-04T17:32:23.639Z,99851.16
2023-03-04T17:37:25.917Z,99859.50
2023-03-04T17:42:27.509Z,99869.13
2023-03-04T17:47:29.298Z,99868.91
2023-03-04T17:52:31.099Z,99867.91
2023-03-04T17:57:36.371Z,99872.69
2023-03-04T18:02:37.969Z,99868.50
2023-03-04T18:07:39.839Z,99878.50
2023-03-04T18:12:41.436Z,99882.16
2023-03-04T18:17:45.339Z,99878.31
2023-03-04T18:22:46.977Z,99886.59
2023-03-04T18:27:48.616Z,99894.13
2023-03-04T18:32:52.456Z,99891.00
2023-03-04T18:37:54.307Z,99894.28
2023-03-04T18:42:57.112Z,99893.16
2023-03-04T18:47:59.496Z,99894.72
2023-03-04T18:53:01.255Z,99902.72
2023-03-04T18:58:04.459Z,99903.63
2023-03-04T19:03:10.016Z,99906.88
2023-03-04T19:08:12.009Z,99914.13
2023-03-04T19:13:15.761Z,99915.81
2023-03-04T19:18:17.716Z,99921.66
2023-03-04T19:23:19.461Z,99925.66
2023-03-04T19:33:22.814Z,99921.72
2023-03-04T19:38:24.441Z,99930.69
2023-03-04T19:43:26.336Z,99942.66
2023-03-04T19:48:28.104Z,99944.88
2023-03-04T19:53:29.761Z,99946.84
2023-03-04T19:58:31.349Z,99946.63
2023-03-04T20:03:33.664Z,99957.22
2023-03-04T20:08:38.368Z,99956.13
2023-03-04T20:13:40.302Z,99961.50
2023-03-04T20:18:43.170Z,99956.91
2023-03-04T20:23:44.836Z,99957.91
2023-03-04T20:28:46.438Z,99957.19
2023-03-04T20:33:49.368Z,99951.38
2023-03-04T20:38:57.986Z,99947.97
2023-03-04T20:44:06.141Z,99946.38
2023-03-04T20:49:16.640Z,99956.47
2023-03-04T20:54:18.273Z,99956.34
2023-03-04T20:59:19.886Z,99950.53
2023-03-04T21:04:21.669Z,99938.66
2023-03-04T21:09:23.556Z,99943.72
2023-03-04T21:14:28.783Z,99943.47
2023-03-04T21:19:32.925Z,99941.84
2023-03-04T21:24:39.428Z,99935.44
2023-03-04T21:29:41.052Z,99933.28
2023-03-04T21:34:46.719Z,99928.31
2023-03-04T21:39:48.462Z,99926.13
2023-03-04T21:44:51.428Z,99925.91
2023-03-04T21:49:53.446Z,99916.34
2023-03-04T21:54:56.010Z,99910.00
2023-03-04T21:59:57.654Z,99906.69
2023-03-04T22:04:59.279Z,99903.34
2023-03-04T22:10:03.038Z,99904.97
2023-03-04T22:15:05.240Z,99897.28
2023-03-04T22:20:07.268Z,99874.28
2023-03-04T22:25:09.444Z,99887.41
2023-03-04T22:30:11.999Z,99890.75
2023-03-04T22:35:14.568Z,99895.06
2023-03-04T22:40:16.402Z,99897.13
2023-03-04T22:45:18.453Z,99900.28
2023-03-04T22:50:21.890Z,99891.78
2023-03-04T22:55:23.562Z,99897.00
2023-03-04T23:00:27.367Z,99893.66
2023-03-04T23:05:29.374Z,99896.88
2023-03-04T23:10:31.241Z,99892.81
2023-03-04T23:15:32.828Z,99886.13
2023-03-04T23:20:34.483Z,99882.75
2023-03-04T23:25:37.184Z,99878.81
2023-03-04T23:30:38.862Z,99874.59
2023-03-04T23:35:40.500Z,99882.06
2023-03-04T23:40:42.305Z,99886.13
2023-03-04T23:45:44.145Z,99883.88
2023-03-04T23:50:51.364Z,99898.94
2023-03-04T23:55:53.008Z,99893.16
